createdAt,value
2022-09-15T00:02:30.302Z,99260.41
2022-09-15T00:05:57.637Z,99258.88
2022-09-15T00:09:24.330Z,99248.77
2022-09-15T00:12:51.763Z,99249.34
2022-09-15T00:16:20.396Z,99247.62
2022-09-15T00:19:47.001Z,99240.48
2022-09-15T00:23:15.837Z,99242.45
2022-09-15T00:26:42.644Z,99247.58
2022-09-15T00:30:11.942Z,99246.73
2022-09-15T00:33:39.042Z,99256.75
2022-09-15T00:37:06.104Z,99265.02
2022-09-15T00:40:33.692Z,99263.13
2022-09-15T00:44:03.635Z,99255.30
2022-09-15T00:47:30.022Z,99252.20
2022-09-15T00:50:59.815Z,99258.17
2022-09-15T00:54:32.533Z,99257.52
2022-09-15T00:58:04.490Z,99252.48
2022-09-15T01:01:33.681Z,99256.02
2022-09-15T01:05:01.948Z,99257.82
2022-09-15T01:08:36.001Z,99252.96
2022-09-15T01:12:03.785Z,99248.61
2022-09-15T01:15:38.669Z,99245.33
2022-09-15T01:19:25.781Z,99241.50
2022-09-15T01:23:07.500Z,99242.26
2022-09-15T01:27:40.616Z,99244.90
2022-09-15T01:31:07.256Z,99255.09
2022-09-15T01:34:42.219Z,99254.26
2022-09-15T01:38:14.987Z,99252.71
2022-09-15T01:41:48.103Z,99248.34
2022-09-15T01:45:22.182Z,99247.15
2022-09-15T01:48:50.778Z,99248.94
2022-09-15T01:52:21.054Z,99248.77
2022-09-15T01:55:54.129Z,99252.65
2022-09-15T01:59:20.860Z,99253.56
2022-09-15T02:02:54.889Z,99250.63
2022-09-15T02:06:36.666Z,99251.19
2022-09-15T02:10:11.576Z,99254.73
2022-09-15T02:13:48.903Z,99254.58
2022-09-15T02:17:19.986Z,99250.57
2022-09-15T02:20:52.419Z,99257.08
2022-09-15T02:24:25.899Z,99254.83
2022-09-15T02:27:56.088Z,99259.41
2022-09-15T02:31:26.170Z,99261.70
2022-09-15T02:34:56.412Z,99260.16
2022-09-15T02:38:23.875Z,99257.91
2022-09-15T02:41:51.314Z,99256.70
2022-09-15T02:45:18.133Z,99251.83
2022-09-15T02:48:45.144Z,99253.08
2022-09-15T02:52:12.271Z,99249.09
2022-09-15T02:55:39.972Z,99247.00
2022-09-15T02:59:07.018Z,99245.62
2022-09-15T03:02:34.585Z,99250.36
2022-09-15T03:06:15.782Z,99250.38
2022-09-15T03:09:43.648Z,99250.92
2022-09-15T03:13:10.253Z,99245.34
2022-09-15T03:16:38.148Z,99249.58
2022-09-15T03:20:07.392Z,99246.80
2022-09-15T03:23:34.710Z,99250.51
2022-09-15T03:27:01.432Z,99244.24
2022-09-15T03:30:28.593Z,99244.95
2022-09-15T03:33:56.198Z,99244.45
2022-09-15T03:37:22.817Z,99246.92
2022-09-15T03:41:02.231Z,99249.40
2022-09-15T03:44:29.272Z,99250.13
2022-09-15T03:47:56.196Z,99249.45
2022-09-15T03:51:22.975Z,99254.70
2022-09-15T03:54:50.580Z,99256.10
2022-09-15T03:58:18.943Z,99260.13
2022-09-15T04:01:45.811Z,99263.27
2022-09-15T04:09:01.782Z,99256.05
2022-09-15T04:12:28.404Z,99260.75
2022-09-15T04:16:02.152Z,99264.05
2022-09-15T04:19:28.899Z,99258.77
2022-09-15T04:22:56.083Z,99260.00
2022-09-15T04:26:25.888Z,99262.77
2022-09-15T04:29:54.604Z,99262.25
2022-09-15T04:33:21.737Z,99262.41
2022-09-15T04:36:48.382Z,99265.02
2022-09-15T04:40:15.277Z,99262.90
2022-09-15T04:43:43.248Z,99266.58
2022-09-15T04:47:10.380Z,99264.98
2022-09-15T04:50:37.517Z,99264.09
2022-09-15T04:54:04.346Z,99261.80
2022-09-15T04:57:31.244Z,99258.80
2022-09-15T05:00:58.025Z,99261.94
2022-09-15T05:04:24.866Z,99261.40
2022-09-15T05:07:52.881Z,99262.61
2022-09-15T05:11:20.114Z,99257.15
2022-09-15T05:14:46.812Z,99253.26
2022-09-15T05:18:13.587Z,99254.56
2022-09-15T05:21:40.355Z,99257.80
2022-09-15T05:25:10.223Z,99262.60
2022-09-15T05:28:38.304Z,99264.23
2022-09-15T05:32:05.461Z,99268.85
2022-09-15T05:35:32.106Z,99268.22
2022-09-15T05:38:59.421Z,99266.54
2022-09-15T05:42:27.571Z,99269.55
2022-09-15T05:45:58.166Z,99269.77
2022-09-15T05:49:24.963Z,99268.77
2022-09-15T05:52:54.650Z,99273.36
2022-09-15T05:56:21.355Z,99273.17
2022-09-15T05:59:48.021Z,99274.02
2022-09-15T06:03:17.731Z,99274.48
2022-09-15T06:06:42.997Z,99277.05
2022-09-15T06:10:12.132Z,99273.81
2022-09-15T06:13:39.800Z,99268.24
2022-09-15T06:17:06.897Z,99266.74
2022-09-15T06:20:34.067Z,99268.63
2022-09-15T06:24:03.334Z,99271.64
2022-09-15T06:27:30.514Z,99273.80
2022-09-15T06:30:57.365Z,99278.71
2022-09-15T06:34:24.007Z,99270.76
2022-09-15T06:37:51.301Z,99272.78
2022-09-15T06:41:18.322Z,99276.04
2022-09-15T06:44:44.934Z,99277.36
2022-09-15T06:48:23.836Z,99273.64
2022-09-15T06:51:52.470Z,99272.94
2022-09-15T06:55:20.081Z,99275.58
2022-09-15T06:58:49.304Z,99280.59
2022-09-15T07:02:25.733Z,99281.92
2022-09-15T07:05:52.431Z,99286.59
2022-09-15T07:09:19.671Z,99290.77
2022-09-15T07:12:47.128Z,99286.39
2022-09-15T07:16:14.719Z,99288.39
2022-09-15T07:19:43.278Z,99282.52
2022-09-15T07:23:10.107Z,99281.41
2022-09-15T07:26:38.985Z,99278.14
2022-09-15T07:30:08.761Z,99281.45
2022-09-15T07:33:35.742Z,99285.89
2022-09-15T07:37:02.773Z,99288.65
2022-09-15T07:40:29.675Z,99293.13
2022-09-15T07:43:59.074Z,99293.48
2022-09-15T07:47:26.685Z,99282.08
2022-09-15T07:50:53.410Z,99282.33
2022-09-15T07:54:22.922Z,99275.02
2022-09-15T07:57:57.197Z,99277.17
2022-09-15T08:01:24.144Z,99285.63
2022-09-15T08:04:51.385Z,99286.05
2022-09-15T08:08:18.413Z,99289.27
2022-09-15T08:11:45.467Z,99285.70
2022-09-15T08:15:13.837Z,99290.11
2022-09-15T08:18:42.054Z,99288.05
2022-09-15T08:22:08.873Z,99287.81
2022-09-15T08:25:35.777Z,99289.22
2022-09-15T08:29:02.708Z,99287.38
2022-09-15T08:32:29.777Z,99281.05
2022-09-15T08:36:01.082Z,99280.77
2022-09-15T08:39:27.682Z,99277.63
2022-09-15T08:42:59.086Z,99274.49
2022-09-15T08:46:34.003Z,99279.98
2022-09-15T08:50:10.270Z,99278.74
2022-09-15T08:53:42.428Z,99278.95
2022-09-15T08:57:19.982Z,99276.06
2022-09-15T09:00:51.785Z,99272.84
2022-09-15T09:04:51.766Z,99280.73
2022-09-15T09:09:00.296Z,99284.29
2022-09-15T09:12:57.546Z,99278.74
2022-09-15T09:16:42.268Z,99280.16
2022-09-15T09:20:37.613Z,99276.58
2022-09-15T09:24:13.900Z,99273.37
2022-09-15T09:27:40.934Z,99271.52
2022-09-15T09:31:17.272Z,99268.25
2022-09-15T09:34:49.103Z,99270.76
2022-09-15T09:38:20.801Z,99258.64
2022-09-15T09:41:47.884Z,99259.19
2022-09-15T09:45:18.577Z,99253.54
2022-09-15T09:48:49.332Z,99253.80
2022-09-15T09:52:33.478Z,99252.97
2022-09-15T09:56:19.183Z,99255.98
2022-09-15T09:59:47.563Z,99253.68
2022-09-15T10:03:18.873Z,99252.11
2022-09-15T10:06:46.097Z,99247.97
2022-09-15T10:10:22.665Z,99243.69
2022-09-15T10:13:57.324Z,99244.96
2022-09-15T10:17:27.283Z,99243.98
2022-09-15T10:20:54.356Z,99238.41
2022-09-15T10:24:40.425Z,99228.45
2022-09-15T10:28:17.838Z,99222.37
2022-09-15T10:31:46.081Z,99228.99
2022-09-15T10:35:16.722Z,99229.95
2022-09-15T10:38:47.646Z,99227.05
2022-09-15T10:42:26.927Z,99231.46
2022-09-15T10:45:59.398Z,99231.89
2022-09-15T10:49:40.384Z,99235.20
2022-09-15T10:53:17.975Z,99237.19
2022-09-15T10:56:49.398Z,99236.11
2022-09-15T11:00:22.642Z,99234.45
2022-09-15T11:04:12.212Z,99232.76
2022-09-15T11:07:49.418Z,99231.58
2022-09-15T11:11:24.127Z,99235.62
2022-09-15T11:15:08.283Z,99237.45
2022-09-15T11:18:53.128Z,99237.18
2022-09-15T11:22:25.425Z,99239.80
2022-09-15T11:25:58.758Z,99247.80
2022-09-15T11:29:30.443Z,99247.10
2022-09-15T11:33:04.378Z,99243.48
2022-09-15T11:36:38.762Z,99247.41
2022-09-15T11:40:17.023Z,99240.97
2022-09-15T11:43:52.424Z,99240.11
2022-09-15T11:47:31.146Z,99238.86
2022-09-15T11:51:02.870Z,99236.73
2022-09-15T11:54:37.345Z,99236.70
2022-09-15T11:58:21.841Z,99237.51
2022-09-15T12:01:56.957Z,99236.27
2022-09-15T12:05:32.095Z,99242.56
2022-09-15T12:09:01.092Z,99245.47
2022-09-15T12:12:30.728Z,99246.27
2022-09-15T12:16:02.125Z,99242.89
2022-09-15T12:19:45.979Z,99239.67
2022-09-15T12:23:25.880Z,99237.83
2022-09-15T12:26:52.853Z,99239.75
2022-09-15T12:30:42.778Z,99242.61
2022-09-15T12:34:38.497Z,99239.02
2022-09-15T12:38:05.266Z,99235.95
2022-09-15T12:41:33.823Z,99236.10
2022-09-15T12:45:03.131Z,99235.66
2022-09-15T12:48:32.605Z,99233.98
2022-09-15T12:52:00.790Z,99231.73
2022-09-15T12:55:31.523Z,99241.61
2022-09-15T12:59:06.578Z,99239.30
2022-09-15T13:02:48.130Z,99238.50
2022-09-15T13:06:23.789Z,99239.90
2022-09-15T13:09:59.697Z,99239.71
2022-09-15T13:13:38.441Z,99241.31
2022-09-15T13:17:12.513Z,99234.81
2022-09-15T13:20:44.386Z,99234.23
2022-09-15T13:24:19.898Z,99233.60
2022-09-15T13:27:49.790Z,99230.73
2022-09-15T13:31:26.856Z,99227.23
2022-09-15T13:35:25.001Z,99226.64
2022-09-15T13:39:06.937Z,99234.77
2022-09-15T13:42:47.287Z,99234.59
2022-09-15T13:46:22.552Z,99234.36
2022-09-15T13:49:55.037Z,99232.52
2022-09-15T13:53:37.270Z,99226.04
2022-09-15T13:57:05.026Z,99226.66
2022-09-15T14:00:34.927Z,99218.52
2022-09-15T14:04:06.289Z,99221.84
2022-09-15T14:07:33.298Z,99218.99
2022-09-15T14:11:02.772Z,99213.92
2022-09-15T14:14:37.567Z,99218.41
2022-09-15T14:18:04.284Z,99216.16
2022-09-15T14:21:33.050Z,99214.44
2022-09-15T14:25:01.515Z,99212.88
2022-09-15T14:28:33.171Z,99212.66
2022-09-15T14:32:04.102Z,99210.63
2022-09-15T14:35:36.347Z,99205.10
2022-09-15T14:39:13.750Z,99203.75
2022-09-15T14:42:43.368Z,99202.70
2022-09-15T14:46:17.137Z,99205.65
2022-09-15T14:49:45.007Z,99204.90
2022-09-15T14:53:17.773Z,99199.80
2022-09-15T14:56:47.081Z,99202.23
2022-09-15T15:00:20.238Z,99202.70
2022-09-15T15:03:54.843Z,99201.86
2022-09-15T15:07:25.871Z,99206.52
2022-09-15T15:10:52.763Z,99205.67
2022-09-15T15:14:19.721Z,99202.16
2022-09-15T15:17:49.752Z,99199.38
2022-09-15T15:21:42.857Z,99200.58
2022-09-15T15:25:24.946Z,99199.25
2022-09-15T15:28:51.841Z,99193.64
2022-09-15T15:32:21.674Z,99190.84
2022-09-15T15:35:49.575Z,99190.71
2022-09-15T15:39:26.017Z,99192.00
2022-09-15T15:43:00.016Z,99194.17
2022-09-15T15:46:55.899Z,99193.05
2022-09-15T15:50:25.434Z,99191.31
2022-09-15T15:53:52.471Z,99195.26
2022-09-15T15:57:27.992Z,99199.31
2022-09-15T16:00:57.169Z,99197.08
2022-09-15T16:04:25.102Z,99199.55
2022-09-15T16:07:54.222Z,99203.63
2022-09-15T16:11:21.071Z,99212.73
2022-09-15T16:14:48.095Z,99212.04
2022-09-15T16:18:16.769Z,99211.83
2022-09-15T16:21:45.754Z,99215.62
2022-09-15T16:25:21.547Z,99212.69
2022-09-15T16:28:48.389Z,99213.11
2022-09-15T16:32:20.429Z,99217.73
2022-09-15T16:35:51.418Z,99215.77
2022-09-15T16:39:18.085Z,99214.08
2022-09-15T16:42:45.263Z,99215.28
2022-09-15T16:46:14.277Z,99215.34
2022-09-15T16:49:42.451Z,99221.22
2022-09-15T16:53:10.243Z,99222.87
2022-09-15T16:56:37.354Z,99226.21
2022-09-15T17:00:05.544Z,99225.13
2022-09-15T17:03:33.198Z,99227.58
2022-09-15T17:06:59.875Z,99226.81
2022-09-15T17:10:27.430Z,99229.19
2022-09-15T17:13:54.540Z,99233.67
2022-09-15T17:17:28.184Z,99234.64
2022-09-15T17:20:55.861Z,99234.75
2022-09-15T17:24:22.606Z,99232.68
2022-09-15T17:27:50.486Z,99239.91
2022-09-15T17:31:21.988Z,99242.76
2022-09-15T17:34:49.077Z,99249.27
2022-09-15T17:38:20.240Z,99250.50
2022-09-15T17:41:47.659Z,99253.81
2022-09-15T17:45:24.115Z,99254.90
2022-09-15T17:48:50.987Z,99253.96
2022-09-15T17:52:17.628Z,99256.61
2022-09-15T17:55:45.067Z,99256.25
2022-09-15T17:59:15.670Z,99257.80
2022-09-15T18:02:48.834Z,99261.30
2022-09-15T18:06:15.707Z,99260.17
2022-09-15T18:09:42.452Z,99263.89
2022-09-15T18:13:13.919Z,99263.09
2022-09-15T18:16:41.890Z,99266.70
2022-09-15T18:20:12.129Z,99274.67
2022-09-15T18:23:39.430Z,99281.77
2022-09-15T18:27:06.650Z,99282.33
2022-09-15T18:30:36.662Z,99278.30
2022-09-15T18:34:03.507Z,99276.67
2022-09-15T18:37:30.670Z,99281.14
2022-09-15T18:40:58.761Z,99280.46
2022-09-15T18:44:26.202Z,99275.04
2022-09-15T18:47:54.429Z,99282.89
2022-09-15T18:51:29.222Z,99282.87
2022-09-15T18:55:02.425Z,99284.77
2022-09-15T18:58:29.477Z,99287.15
2022-09-15T19:01:56.653Z,99291.45
2022-09-15T19:05:23.743Z,99289.44
2022-09-15T19:08:51.180Z,99288.84
2022-09-15T19:15:53.597Z,99302.05
2022-09-15T19:19:20.586Z,99305.84
2022-09-15T19:22:47.628Z,99315.63
2022-09-15T19:26:17.099Z,99311.04
2022-09-15T19:29:45.224Z,99311.02
2022-09-15T19:33:12.307Z,99314.35
2022-09-15T19:36:39.172Z,99309.10
2022-09-15T19:40:09.664Z,99308.30
2022-09-15T19:43:38.175Z,99308.88
2022-09-15T19:47:05.397Z,99311.59
2022-09-15T19:50:32.635Z,99310.58
2022-09-15T19:54:00.581Z,99314.68
2022-09-15T19:57:27.764Z,99317.02
2022-09-15T20:00:58.061Z,99317.25
2022-09-15T20:04:26.854Z,99320.46
2022-09-15T20:07:56.822Z,99327.15
2022-09-15T20:11:24.749Z,99325.26
2022-09-15T20:14:53.248Z,99329.65
2022-09-15T20:18:21.521Z,99325.30
2022-09-15T20:21:51.060Z,99323.23
2022-09-15T20:25:25.152Z,99328.90
2022-09-15T20:28:54.248Z,99334.96
2022-09-15T20:32:28.088Z,99338.92
2022-09-15T20:35:56.555Z,99335.55
2022-09-15T20:39:24.474Z,99337.77
2022-09-15T20:42:55.580Z,99334.40
2022-09-15T20:46:24.992Z,99328.92
2022-09-15T20:49:53.032Z,99331.14
2022-09-15T20:53:20.655Z,99337.91
2022-09-15T20:56:48.710Z,99332.05
2022-09-15T21:00:19.142Z,99336.48
2022-09-15T21:03:48.093Z,99334.10
2022-09-15T21:07:15.992Z,99334.85
2022-09-15T21:10:49.604Z,99341.50
2022-09-15T21:14:17.195Z,99339.22
2022-09-15T21:17:44.349Z,99340.03
2022-09-15T21:21:14.648Z,99340.67
2022-09-15T21:24:41.662Z,99342.38
2022-09-15T21:28:08.614Z,99342.67
2022-09-15T21:31:36.745Z,99339.50
2022-09-15T21:35:04.228Z,99335.64
2022-09-15T21:38:31.256Z,99333.56
2022-09-15T21:41:58.266Z,99333.25
2022-09-15T21:45:25.489Z,99335.21
2022-09-15T21:48:52.959Z,99341.02
2022-09-15T21:52:19.876Z,99337.40
2022-09-15T21:55:47.116Z,99343.58
2022-09-15T21:59:14.490Z,99347.48
2022-09-15T22:02:41.406Z,99350.16
2022-09-15T22:06:09.458Z,99354.24
2022-09-15T22:09:36.715Z,99353.41
2022-09-15T22:13:04.188Z,99353.63
2022-09-15T22:16:32.830Z,99355.41
2022-09-15T22:19:59.811Z,99359.98
2022-09-15T22:23:27.054Z,99362.07
2022-09-15T22:26:54.458Z,99363.85
2022-09-15T22:30:22.111Z,99364.41
2022-09-15T22:33:50.183Z,99368.64
2022-09-15T22:37:17.248Z,99370.05
2022-09-15T22:40:44.709Z,99366.95
2022-09-15T22:44:20.620Z,99362.96
2022-09-15T22:47:47.937Z,99362.98
2022-09-15T22:51:16.025Z,99364.90
2022-09-15T22:54:43.783Z,99365.43
2022-09-15T22:58:11.058Z,99367.71
2022-09-15T23:01:38.054Z,99367.69
2022-09-15T23:05:06.609Z,99365.94
2022-09-15T23:08:35.272Z,99367.52
2022-09-15T23:12:02.055Z,99371.73
2022-09-15T23:15:29.921Z,99370.51
2022-09-15T23:18:58.464Z,99371.39
2022-09-15T23:22:25.790Z,99374.22
2022-09-15T23:25:52.735Z,99381.58
2022-09-15T23:29:19.751Z,99383.87
2022-09-15T23:32:46.629Z,99383.89
2022-09-15T23:36:15.424Z,99387.41
2022-09-15T23:39:42.750Z,99383.23
2022-09-15T23:43:09.404Z,99380.11
2022-09-15T23:46:37.156Z,99382.22
2022-09-15T23:50:03.937Z,99389.23
2022-09-15T23:53:30.974Z,99397.44
2022-09-15T23:56:57.719Z,99399.37
